Main page
METAR-TAF:

METAR-TAF

Airports :

Uytash Airport

Makhachkala, Russia

latitude: 42-49-01N, longitude: 047-39-08E, elevation: 4 m

Current weather observation

The report was made 33 minutes ago, at 12:00 UTC
Wind 10 kt from the East/Northeast, varying between Northeast and East
Temperature 24°C
Humidity 47%
Pressure 1016 hPa
Visibility 10 km or more

METAR: URML 311200Z 07005MPS 040V100 9999 NSC 24/12 Q1016 R32/01//70 NOSIG RMK QFE762/1016

Time: 15:33 (12:33 UTC)

Forecast

The report was made 1 hour and 33 minutes ago, at 11:00 UTC
Forecast valid from 31 at 12 UTC to 31 at 21 UTC
Wind 12 kt from the Northeast with gusts up to 23 kt
Visibility 10 km or more
Scattered clouds at a height of 3000 ft, Cumulonimbus.
Temporary
from 31 at 12 UTC to 31 at 18 UTC
Wind 6 kt from the East/Southeast with gusts up to 16 kt

TAF: URML 311100Z 3112/3121 05006G12MPS 9999 SCT030CB TEMPO 3112/3118 12003G08MPS

Weather observations and forecasts of more than 4000 airports (METAR and TAF reports).

The available stations are represented by yellow and red dots on the map.

Hover mouse over dot to see the name of the station.

Then click to see weather observations and forecasts.

To change the map : click on the green buttons with a black cross to zoom in, on the green button with a dash to zoom out, or on the green arrows for adjacent maps.


METAR-TAF: